sensor_id;sensor_type;location;lat;lon;timestamp;temperature;humidity
34873;DHT22;21084;51.098;14.506;2023-02-01T00:01:24;4.80;99.90
34873;DHT22;21084;51.098;14.506;2023-02-01T00:03:53;4.80;99.90
34873;DHT22;21084;51.098;14.506;2023-02-01T00:06:21;4.80;99.90
34873;DHT22;21084;51.098;14.506;2023-02-01T00:08:52;4.70;99.90
34873;DHT22;21084;51.098;14.506;2023-02-01T00:11:20;4.70;99.90
34873;DHT22;21084;51.098;14.506;2023-02-01T00:13:51;4.70;99.90
34873;DHT22;21084;51.098;14.506;2023-02-01T00:16:21;4.70;99.90
34873;DHT22;21084;51.098;14.506;2023-02-01T00:18:51;4.70;99.90
34873;DHT22;21084;51.098;14.506;2023-02-01T00:21:21;4.70;99.90
34873;DHT22;21084;51.098;14.506;2023-02-01T00:23:49;4.70;99.90
34873;DHT22;21084;51.098;14.506;2023-02-01T00:26:19;4.70;99.90
34873;DHT22;21084;51.098;14.506;2023-02-01T00:28:51;4.70;99.90
34873;DHT22;21084;51.098;14.506;2023-02-01T00:31:19;4.70;99.90
34873;DHT22;21084;51.098;14.506;2023-02-01T00:33:48;4.70;99.90
34873;DHT22;21084;51.098;14.506;2023-02-01T00:36:17;4.60;99.90
34873;DHT22;21084;51.098;14.506;2023-02-01T00:38:46;4.60;99.90
34873;DHT22;21084;51.098;14.506;2023-02-01T00:41:16;4.70;99.90
34873;DHT22;21084;51.098;14.506;2023-02-01T00:43:46;4.70;99.90
34873;DHT22;21084;51.098;14.506;2023-02-01T00:46:17;4.60;99.90
34873;DHT22;21084;51.098;14.506;2023-02-01T00:48:46;4.60;99.90
34873;DHT22;21084;51.098;14.506;2023-02-01T00:51:16;4.60;99.90
34873;DHT22;21084;51.098;14.506;2023-02-01T00:53:45;4.60;99.90
34873;DHT22;21084;51.098;14.506;2023-02-01T00:56:13;4.60;99.90
34873;DHT22;21084;51.098;14.506;2023-02-01T00:58:42;4.60;99.90
34873;DHT22;21084;51.098;14.506;2023-02-01T01:01:12;4.60;99.90
34873;DHT22;21084;51.098;14.506;2023-02-01T01:03:44;4.60;99.90
34873;DHT22;21084;51.098;14.506;2023-02-01T01:06:15;4.50;99.90
34873;DHT22;21084;51.098;14.506;2023-02-01T01:08:44;4.50;99.90
34873;DHT22;21084;51.098;14.506;2023-02-01T01:11:14;4.50;99.90
34873;DHT22;21084;51.098;14.506;2023-02-01T01:13:46;4.50;99.90
34873;DHT22;21084;51.098;14.506;2023-02-01T01:16:15;4.50;99.90
34873;DHT22;21084;51.098;14.506;2023-02-01T01:18:45;4.40;99.90
34873;DHT22;21084;51.098;14.506;2023-02-01T01:21:15;4.40;99.90
34873;DHT22;21084;51.098;14.506;2023-02-01T01:23:44;4.40;99.90
34873;DHT22;21084;51.098;14.506;2023-02-01T01:26:15;4.40;99.90
34873;DHT22;21084;51.098;14.506;2023-02-01T01:28:45;4.40;99.90
34873;DHT22;21084;51.098;14.506;2023-02-01T01:31:15;4.40;99.90
34873;DHT22;21084;51.098;14.506;2023-02-01T01:33:47;4.40;99.90
34873;DHT22;21084;51.098;14.506;2023-02-01T01:36:16;4.40;99.90
34873;DHT22;21084;51.098;14.506;2023-02-01T01:38:45;4.50;99.90
34873;DHT22;21084;51.098;14.506;2023-02-01T01:41:15;4.60;99.90
34873;DHT22;21084;51.098;14.506;2023-02-01T01:43:48;4.60;99.90
34873;DHT22;21084;51.098;14.506;2023-02-01T01:46:18;4.50;99.90
34873;DHT22;21084;51.098;14.506;2023-02-01T01:48:52;4.50;99.90
34873;DHT22;21084;51.098;14.506;2023-02-01T01:51:23;4.50;99.90
34873;DHT22;21084;51.098;14.506;2023-02-01T01:53:58;4.50;99.90
34873;DHT22;21084;51.098;14.506;2023-02-01T01:56:29;4.50;99.90
34873;DHT22;21084;51.098;14.506;2023-02-01T01:58:59;4.50;99.90
34873;DHT22;21084;51.098;14.506;2023-02-01T02:01:28;4.40;99.90
34873;DHT22;21084;51.098;14.506;2023-02-01T02:03:59;4.40;99.90
34873;DHT22;21084;51.098;14.506;2023-02-01T02:06:36;4.40;99.90
34873;DHT22;21084;51.098;14.506;2023-02-01T02:09:06;4.40;99.90
34873;DHT22;21084;51.098;14.506;2023-02-01T02:11:35;4.50;99.90
34873;DHT22;21084;51.098;14.506;2023-02-01T02:14:05;4.50;99.90
34873;DHT22;21084;51.098;14.506;2023-02-01T02:16:47;4.50;99.90
34873;DHT22;21084;51.098;14.506;2023-02-01T02:22:54;4.40;99.90
34873;DHT22;21084;51.098;14.506;2023-02-01T02:28:50;4.30;99.90
34873;DHT22;21084;51.098;14.506;2023-02-01T02:31:40;4.30;99.90
34873;DHT22;21084;51.098;14.506;2023-02-01T02:34:17;4.30;99.90
34873;DHT22;21084;51.098;14.506;2023-02-01T02:36:54;4.30;99.90
34873;DHT22;21084;51.098;14.506;2023-02-01T02:39:37;4.30;99.90
34873;DHT22;21084;51.098;14.506;2023-02-01T02:42:12;4.30;99.90
34873;DHT22;21084;51.098;14.506;2023-02-01T02:45:03;4.30;99.90
34873;DHT22;21084;51.098;14.506;2023-02-01T02:48:11;4.20;99.90
34873;DHT22;21084;51.098;14.506;2023-02-01T02:50:45;4.20;99.90
34873;DHT22;21084;51.098;14.506;2023-02-01T02:53:35;4.20;99.90
34873;DHT22;21084;51.098;14.506;2023-02-01T02:56:37;4.20;99.90
34873;DHT22;21084;51.098;14.506;2023-02-01T02:59:26;4.10;99.90
34873;DHT22;21084;51.098;14.506;2023-02-01T03:02:14;4.10;99.90
34873;DHT22;21084;51.098;14.506;2023-02-01T03:05:00;4.10;99.90
34873;DHT22;21084;51.098;14.506;2023-02-01T03:08:00;4.10;99.90
34873;DHT22;21084;51.098;14.506;2023-02-01T03:10:40;4.10;99.90
34873;DHT22;21084;51.098;14.506;2023-02-01T03:13:13;4.10;99.90
34873;DHT22;21084;51.098;14.506;2023-02-01T03:15:48;4.10;99.90
34873;DHT22;21084;51.098;14.506;2023-02-01T03:18:24;4.20;99.90
34873;DHT22;21084;51.098;14.506;2023-02-01T03:20:55;4.10;99.90
34873;DHT22;21084;51.098;14.506;2023-02-01T03:23:30;4.10;99.90
34873;DHT22;21084;51.098;14.506;2023-02-01T03:25:59;4.10;99.90
34873;DHT22;21084;51.098;14.506;2023-02-01T03:28:31;4.10;99.90
34873;DHT22;21084;51.098;14.506;2023-02-01T03:31:01;4.10;99.90
34873;DHT22;21084;51.098;14.506;2023-02-01T03:33:30;4.00;99.90
34873;DHT22;21084;51.098;14.506;2023-02-01T03:36:12;4.00;99.90
34873;DHT22;21084;51.098;14.506;2023-02-01T03:38:50;4.00;99.90
34873;DHT22;21084;51.098;14.506;2023-02-01T03:41:24;4.10;99.90
34873;DHT22;21084;51.098;14.506;2023-02-01T03:43:59;4.10;99.90
34873;DHT22;21084;51.098;14.506;2023-02-01T03:46:33;4.10;99.90
34873;DHT22;21084;51.098;14.506;2023-02-01T03:49:06;4.20;99.90
34873;DHT22;21084;51.098;14.506;2023-02-01T03:51:36;4.20;99.90
34873;DHT22;21084;51.098;14.506;2023-02-01T03:54:12;4.20;99.90
34873;DHT22;21084;51.098;14.506;2023-02-01T03:56:43;4.20;99.90
34873;DHT22;21084;51.098;14.506;2023-02-01T03:59:13;4.30;99.90
34873;DHT22;21084;51.098;14.506;2023-02-01T04:01:42;4.30;99.90
34873;DHT22;21084;51.098;14.506;2023-02-01T04:04:10;4.30;99.90
34873;DHT22;21084;51.098;14.506;2023-02-01T04:06:47;4.40;99.90
34873;DHT22;21084;51.098;14.506;2023-02-01T04:09:17;4.30;99.90
34873;DHT22;21084;51.098;14.506;2023-02-01T04:11:45;4.30;99.90
34873;DHT22;21084;51.098;14.506;2023-02-01T04:14:14;4.30;99.90
34873;DHT22;21084;51.098;14.506;2023-02-01T04:16:43;4.40;99.90
34873;DHT22;21084;51.098;14.506;2023-02-01T04:19:11;4.40;99.90
34873;DHT22;21084;51.098;14.506;2023-02-01T04:21:40;4.40;99.90
34873;DHT22;21084;51.098;14.506;2023-02-01T04:24:08;4.40;99.90
34873;DHT22;21084;51.098;14.506;2023-02-01T04:26:39;4.40;99.90
34873;DHT22;21084;51.098;14.506;2023-02-01T04:29:08;4.30;99.90
34873;DHT22;21084;51.098;14.506;2023-02-01T04:31:37;4.40;99.90
34873;DHT22;21084;51.098;14.506;2023-02-01T04:34:05;4.40;99.90
34873;DHT22;21084;51.098;14.506;2023-02-01T04:36:34;4.30;99.90
34873;DHT22;21084;51.098;14.506;2023-02-01T04:39:02;4.30;99.90
34873;DHT22;21084;51.098;14.506;2023-02-01T04:41:31;4.30;99.90
34873;DHT22;21084;51.098;14.506;2023-02-01T04:44:01;4.30;99.90
34873;DHT22;21084;51.098;14.506;2023-02-01T04:46:29;4.40;99.90
34873;DHT22;21084;51.098;14.506;2023-02-01T04:48:57;4.40;99.90
34873;DHT22;21084;51.098;14.506;2023-02-01T04:51:26;4.40;99.90
34873;DHT22;21084;51.098;14.506;2023-02-01T04:53:54;4.40;99.90
34873;DHT22;21084;51.098;14.506;2023-02-01T04:56:23;4.40;99.90
34873;DHT22;21084;51.098;14.506;2023-02-01T04:58:51;4.40;99.90
34873;DHT22;21084;51.098;14.506;2023-02-01T05:01:22;4.40;99.90
34873;DHT22;21084;51.098;14.506;2023-02-01T05:03:51;4.40;99.90
34873;DHT22;21084;51.098;14.506;2023-02-01T05:06:20;4.40;99.90
34873;DHT22;21084;51.098;14.506;2023-02-01T05:08:49;4.40;99.90
34873;DHT22;21084;51.098;14.506;2023-02-01T05:11:17;4.40;99.90
34873;DHT22;21084;51.098;14.506;2023-02-01T05:14:03;4.30;99.90
34873;DHT22;21084;51.098;14.506;2023-02-01T05:16:33;4.30;99.90
34873;DHT22;21084;51.098;14.506;2023-02-01T05:19:01;4.40;99.90
34873;DHT22;21084;51.098;14.506;2023-02-01T05:21:30;4.40;99.90
34873;DHT22;21084;51.098;14.506;2023-02-01T05:23:58;4.40;99.90
34873;DHT22;21084;51.098;14.506;2023-02-01T05:26:40;4.40;99.90
34873;DHT22;21084;51.098;14.506;2023-02-01T05:29:10;4.40;99.90
34873;DHT22;21084;51.098;14.506;2023-02-01T05:31:40;4.40;99.90
34873;DHT22;21084;51.098;14.506;2023-02-01T05:34:09;4.40;99.90
34873;DHT22;21084;51.098;14.506;2023-02-01T05:36:38;4.40;99.90
34873;DHT22;21084;51.098;14.506;2023-02-01T05:39:06;4.40;99.90
34873;DHT22;21084;51.098;14.506;2023-02-01T05:41:35;4.40;99.90
34873;DHT22;21084;51.098;14.506;2023-02-01T05:44:04;4.40;99.90
34873;DHT22;21084;51.098;14.506;2023-02-01T05:46:34;4.40;99.90
34873;DHT22;21084;51.098;14.506;2023-02-01T05:49:04;4.50;99.90
34873;DHT22;21084;51.098;14.506;2023-02-01T05:51:33;4.40;99.90
34873;DHT22;21084;51.098;14.506;2023-02-01T05:54:01;4.40;99.90
34873;DHT22;21084;51.098;14.506;2023-02-01T05:56:30;4.40;99.90
34873;DHT22;21084;51.098;14.506;2023-02-01T05:58:58;4.30;99.90
34873;DHT22;21084;51.098;14.506;2023-02-01T06:01:26;4.30;99.90
34873;DHT22;21084;51.098;14.506;2023-02-01T06:03:55;4.30;99.90
34873;DHT22;21084;51.098;14.506;2023-02-01T06:06:25;4.30;99.90
34873;DHT22;21084;51.098;14.506;2023-02-01T06:08:53;4.30;99.90
34873;DHT22;21084;51.098;14.506;2023-02-01T06:11:21;4.30;99.90
34873;DHT22;21084;51.098;14.506;2023-02-01T06:13:59;4.40;99.90
34873;DHT22;21084;51.098;14.506;2023-02-01T06:16:28;4.30;99.90
34873;DHT22;21084;51.098;14.506;2023-02-01T06:18:56;4.30;99.90
34873;DHT22;21084;51.098;14.506;2023-02-01T06:21:26;4.30;99.90
34873;DHT22;21084;51.098;14.506;2023-02-01T06:23:55;4.30;99.90
34873;DHT22;21084;51.098;14.506;2023-02-01T06:26:24;4.10;99.90
34873;DHT22;21084;51.098;14.506;2023-02-01T06:28:55;4.00;99.90
34873;DHT22;21084;51.098;14.506;2023-02-01T06:31:24;3.90;99.90
34873;DHT22;21084;51.098;14.506;2023-02-01T06:33:53;3.80;99.90
34873;DHT22;21084;51.098;14.506;2023-02-01T06:36:22;3.60;99.90
34873;DHT22;21084;51.098;14.506;2023-02-01T06:38:52;3.40;99.90
34873;DHT22;21084;51.098;14.506;2023-02-01T06:41:21;3.30;99.90
34873;DHT22;21084;51.098;14.506;2023-02-01T06:43:49;3.20;99.90
34873;DHT22;21084;51.098;14.506;2023-02-01T06:46:17;3.10;99.90
34873;DHT22;21084;51.098;14.506;2023-02-01T06:48:46;2.90;99.90
34873;DHT22;21084;51.098;14.506;2023-02-01T06:51:19;2.80;99.90
34873;DHT22;21084;51.098;14.506;2023-02-01T06:53:49;2.70;99.90
34873;DHT22;21084;51.098;14.506;2023-02-01T06:56:19;2.70;99.90
34873;DHT22;21084;51.098;14.506;2023-02-01T06:58:50;2.60;99.90
34873;DHT22;21084;51.098;14.506;2023-02-01T07:01:19;2.60;99.90
34873;DHT22;21084;51.098;14.506;2023-02-01T07:03:48;2.60;99.90
34873;DHT22;21084;51.098;14.506;2023-02-01T07:06:18;2.60;99.90
34873;DHT22;21084;51.098;14.506;2023-02-01T07:08:46;2.50;99.90
34873;DHT22;21084;51.098;14.506;2023-02-01T07:11:17;2.50;99.90
34873;DHT22;21084;51.098;14.506;2023-02-01T07:13:47;2.60;99.90
34873;DHT22;21084;51.098;14.506;2023-02-01T07:16:18;2.60;99.90
34873;DHT22;21084;51.098;14.506;2023-02-01T07:18:47;2.70;99.90
34873;DHT22;21084;51.098;14.506;2023-02-01T07:21:16;2.70;99.90
34873;DHT22;21084;51.098;14.506;2023-02-01T07:23:45;2.80;99.90
34873;DHT22;21084;51.098;14.506;2023-02-01T07:26:14;2.80;99.90
34873;DHT22;21084;51.098;14.506;2023-02-01T07:28:43;2.90;99.90
34873;DHT22;21084;51.098;14.506;2023-02-01T07:31:14;2.90;99.90
34873;DHT22;21084;51.098;14.506;2023-02-01T07:33:45;3.00;99.90
34873;DHT22;21084;51.098;14.506;2023-02-01T07:36:16;3.00;99.90
34873;DHT22;21084;51.098;14.506;2023-02-01T07:38:44;3.00;99.90
34873;DHT22;21084;51.098;14.506;2023-02-01T07:41:14;3.00;99.90
34873;DHT22;21084;51.098;14.506;2023-02-01T07:43:43;3.00;99.90
34873;DHT22;21084;51.098;14.506;2023-02-01T07:46:14;3.10;99.90
34873;DHT22;21084;51.098;14.506;2023-02-01T07:48:43;3.10;99.90
34873;DHT22;21084;51.098;14.506;2023-02-01T07:51:13;3.10;99.90
34873;DHT22;21084;51.098;14.506;2023-02-01T07:53:43;3.10;99.90
34873;DHT22;21084;51.098;14.506;2023-02-01T07:56:13;3.10;99.90
34873;DHT22;21084;51.098;14.506;2023-02-01T07:58:42;3.20;99.90
34873;DHT22;21084;51.098;14.506;2023-02-01T08:01:15;3.10;99.90
34873;DHT22;21084;51.098;14.506;2023-02-01T08:03:53;3.10;99.90
34873;DHT22;21084;51.098;14.506;2023-02-01T08:06:23;3.10;99.90
34873;DHT22;21084;51.098;14.506;2023-02-01T08:08:52;3.10;99.90
34873;DHT22;21084;51.098;14.506;2023-02-01T08:11:22;3.10;99.90
34873;DHT22;21084;51.098;14.506;2023-02-01T08:13:51;3.00;99.90
34873;DHT22;21084;51.098;14.506;2023-02-01T08:16:23;3.00;99.90
34873;DHT22;21084;51.098;14.506;2023-02-01T08:18:51;3.00;99.90
34873;DHT22;21084;51.098;14.506;2023-02-01T08:21:22;3.00;99.90
34873;DHT22;21084;51.098;14.506;2023-02-01T08:23:51;3.00;99.90
34873;DHT22;21084;51.098;14.506;2023-02-01T08:26:21;3.00;99.90
34873;DHT22;21084;51.098;14.506;2023-02-01T08:28:53;3.00;99.90
34873;DHT22;21084;51.098;14.506;2023-02-01T08:31:24;3.10;99.90
34873;DHT22;21084;51.098;14.506;2023-02-01T08:33:55;3.20;99.90
34873;DHT22;21084;51.098;14.506;2023-02-01T08:36:25;3.20;99.90
34873;DHT22;21084;51.098;14.506;2023-02-01T08:38:54;3.30;99.90
34873;DHT22;21084;51.098;14.506;2023-02-01T08:41:25;3.30;99.90
34873;DHT22;21084;51.098;14.506;2023-02-01T08:43:54;3.30;99.90
34873;DHT22;21084;51.098;14.506;2023-02-01T08:46:24;3.40;99.90
34873;DHT22;21084;51.098;14.506;2023-02-01T08:48:53;3.40;99.90
34873;DHT22;21084;51.098;14.506;2023-02-01T08:51:23;3.40;99.90
34873;DHT22;21084;51.098;14.506;2023-02-01T08:53:52;3.40;99.90
34873;DHT22;21084;51.098;14.506;2023-02-01T08:56:20;3.50;99.90
34873;DHT22;21084;51.098;14.506;2023-02-01T08:58:49;3.40;99.90
34873;DHT22;21084;51.098;14.506;2023-02-01T09:01:18;3.40;99.90
34873;DHT22;21084;51.098;14.506;2023-02-01T09:03:47;3.40;99.90
34873;DHT22;21084;51.098;14.506;2023-02-01T09:06:16;3.40;99.90
34873;DHT22;21084;51.098;14.506;2023-02-01T09:08:45;3.30;99.90
34873;DHT22;21084;51.098;14.506;2023-02-01T09:11:15;3.20;99.90
34873;DHT22;21084;51.098;14.506;2023-02-01T09:13:44;3.20;99.90
34873;DHT22;21084;51.098;14.506;2023-02-01T09:16:13;3.20;99.90
34873;DHT22;21084;51.098;14.506;2023-02-01T09:18:43;3.30;99.90
34873;DHT22;21084;51.098;14.506;2023-02-01T09:21:33;3.30;99.90
34873;DHT22;21084;51.098;14.506;2023-02-01T09:24:02;3.30;99.90
34873;DHT22;21084;51.098;14.506;2023-02-01T09:26:31;3.40;99.90
34873;DHT22;21084;51.098;14.506;2023-02-01T09:29:00;3.40;99.90
34873;DHT22;21084;51.098;14.506;2023-02-01T09:31:28;3.60;99.90
34873;DHT22;21084;51.098;14.506;2023-02-01T09:33:57;3.80;99.90
34873;DHT22;21084;51.098;14.506;2023-02-01T09:36:26;4.00;99.90
34873;DHT22;21084;51.098;14.506;2023-02-01T09:38:59;4.20;99.90
34873;DHT22;21084;51.098;14.506;2023-02-01T09:41:41;4.20;99.90
34873;DHT22;21084;51.098;14.506;2023-02-01T09:44:21;4.30;99.90
34873;DHT22;21084;51.098;14.506;2023-02-01T09:47:13;4.30;99.90
34873;DHT22;21084;51.098;14.506;2023-02-01T09:49:49;4.30;99.90
34873;DHT22;21084;51.098;14.506;2023-02-01T09:52:24;4.30;99.90
34873;DHT22;21084;51.098;14.506;2023-02-01T09:55:00;4.20;99.90
34873;DHT22;21084;51.098;14.506;2023-02-01T09:57:41;4.20;99.90
34873;DHT22;21084;51.098;14.506;2023-02-01T10:00:17;4.10;99.90
34873;DHT22;21084;51.098;14.506;2023-02-01T10:02:50;4.00;99.90
34873;DHT22;21084;51.098;14.506;2023-02-01T10:05:20;4.00;99.90
34873;DHT22;21084;51.098;14.506;2023-02-01T10:08:00;4.00;99.90
34873;DHT22;21084;51.098;14.506;2023-02-01T10:10:38;4.00;99.90
34873;DHT22;21084;51.098;14.506;2023-02-01T10:13:25;4.10;99.90
34873;DHT22;21084;51.098;14.506;2023-02-01T10:16:09;4.00;99.90
34873;DHT22;21084;51.098;14.506;2023-02-01T10:18:51;4.10;99.90
34873;DHT22;21084;51.098;14.506;2023-02-01T10:21:34;4.00;99.90
34873;DHT22;21084;51.098;14.506;2023-02-01T10:24:25;3.80;99.90
34873;DHT22;21084;51.098;14.506;2023-02-01T10:27:02;3.60;99.90
34873;DHT22;21084;51.098;14.506;2023-02-01T10:29:35;3.50;99.90
34873;DHT22;21084;51.098;14.506;2023-02-01T10:32:11;3.50;99.90
34873;DHT22;21084;51.098;14.506;2023-02-01T10:34:41;3.40;99.90
34873;DHT22;21084;51.098;14.506;2023-02-01T10:37:20;3.20;99.90
34873;DHT22;21084;51.098;14.506;2023-02-01T10:39:54;3.10;99.90
34873;DHT22;21084;51.098;14.506;2023-02-01T10:42:27;3.00;99.90
34873;DHT22;21084;51.098;14.506;2023-02-01T10:44:59;3.00;99.90
34873;DHT22;21084;51.098;14.506;2023-02-01T10:47:28;3.00;99.90
34873;DHT22;21084;51.098;14.506;2023-02-01T10:50:03;3.00;99.90
34873;DHT22;21084;51.098;14.506;2023-02-01T10:52:45;2.90;99.90
34873;DHT22;21084;51.098;14.506;2023-02-01T10:55:33;2.90;99.90
34873;DHT22;21084;51.098;14.506;2023-02-01T10:58:05;2.90;99.90
34873;DHT22;21084;51.098;14.506;2023-02-01T11:00:43;3.00;99.90
34873;DHT22;21084;51.098;14.506;2023-02-01T11:03:37;3.10;99.90
34873;DHT22;21084;51.098;14.506;2023-02-01T11:06:14;3.20;99.90
34873;DHT22;21084;51.098;14.506;2023-02-01T11:08:47;3.20;99.90
34873;DHT22;21084;51.098;14.506;2023-02-01T11:11:16;3.20;99.90
34873;DHT22;21084;51.098;14.506;2023-02-01T11:13:54;3.30;99.90
34873;DHT22;21084;51.098;14.506;2023-02-01T11:16:30;3.40;99.90
34873;DHT22;21084;51.098;14.506;2023-02-01T11:19:01;3.40;99.90
34873;DHT22;21084;51.098;14.506;2023-02-01T11:21:30;3.40;99.90
34873;DHT22;21084;51.098;14.506;2023-02-01T11:24:02;3.50;99.90
34873;DHT22;21084;51.098;14.506;2023-02-01T11:26:32;3.50;99.90
34873;DHT22;21084;51.098;14.506;2023-02-01T11:29:04;3.50;99.90
34873;DHT22;21084;51.098;14.506;2023-02-01T11:31:37;3.60;99.90
34873;DHT22;21084;51.098;14.506;2023-02-01T11:34:08;3.60;99.90
34873;DHT22;21084;51.098;14.506;2023-02-01T11:36:40;3.60;99.90
34873;DHT22;21084;51.098;14.506;2023-02-01T11:39:21;3.70;99.90
34873;DHT22;21084;51.098;14.506;2023-02-01T11:41:58;3.70;99.90
34873;DHT22;21084;51.098;14.506;2023-02-01T11:44:33;3.80;99.90
34873;DHT22;21084;51.098;14.506;2023-02-01T11:47:26;3.90;99.90
34873;DHT22;21084;51.098;14.506;2023-02-01T11:49:57;4.00;99.90
34873;DHT22;21084;51.098;14.506;2023-02-01T11:52:43;4.00;99.90
34873;DHT22;21084;51.098;14.506;2023-02-01T11:55:31;4.10;99.90
34873;DHT22;21084;51.098;14.506;2023-02-01T11:58:14;4.20;99.90
34873;DHT22;21084;51.098;14.506;2023-02-01T12:00:58;4.30;99.90
34873;DHT22;21084;51.098;14.506;2023-02-01T12:04:02;4.30;99.90
34873;DHT22;21084;51.098;14.506;2023-02-01T12:06:48;4.40;99.90
34873;DHT22;21084;51.098;14.506;2023-02-01T12:09:39;4.30;99.90
34873;DHT22;21084;51.098;14.506;2023-02-01T12:12:22;4.30;99.90
34873;DHT22;21084;51.098;14.506;2023-02-01T12:15:11;4.40;99.90
34873;DHT22;21084;51.098;14.506;2023-02-01T12:20:57;4.60;99.90
34873;DHT22;21084;51.098;14.506;2023-02-01T12:29:25;4.50;99.90
34873;DHT22;21084;51.098;14.506;2023-02-01T12:32:11;4.30;99.90
34873;DHT22;21084;51.098;14.506;2023-02-01T12:38:15;3.90;99.90
34873;DHT22;21084;51.098;14.506;2023-02-01T12:40:54;3.90;99.90
34873;DHT22;21084;51.098;14.506;2023-02-01T12:43:36;4.00;99.90
34873;DHT22;21084;51.098;14.506;2023-02-01T12:46:10;3.80;99.90
34873;DHT22;21084;51.098;14.506;2023-02-01T12:48:49;3.70;99.90
34873;DHT22;21084;51.098;14.506;2023-02-01T12:51:24;3.70;99.90
34873;DHT22;21084;51.098;14.506;2023-02-01T12:53:57;3.50;99.90
34873;DHT22;21084;51.098;14.506;2023-02-01T12:56:31;3.40;99.90
34873;DHT22;21084;51.098;14.506;2023-02-01T12:59:04;3.20;99.90
34873;DHT22;21084;51.098;14.506;2023-02-01T13:01:36;3.20;99.90
34873;DHT22;21084;51.098;14.506;2023-02-01T13:04:13;3.20;99.90
34873;DHT22;21084;51.098;14.506;2023-02-01T13:06:48;3.30;99.90
34873;DHT22;21084;51.098;14.506;2023-02-01T13:09:23;3.70;99.90
34873;DHT22;21084;51.098;14.506;2023-02-01T13:11:55;4.00;99.90
34873;DHT22;21084;51.098;14.506;2023-02-01T13:14:33;4.40;99.90
34873;DHT22;21084;51.098;14.506;2023-02-01T13:17:06;4.20;99.90
34873;DHT22;21084;51.098;14.506;2023-02-01T13:19:43;4.00;99.90
34873;DHT22;21084;51.098;14.506;2023-02-01T13:22:19;4.10;99.90
34873;DHT22;21084;51.098;14.506;2023-02-01T13:24:50;4.50;99.90
34873;DHT22;21084;51.098;14.506;2023-02-01T13:27:21;4.70;99.90
34873;DHT22;21084;51.098;14.506;2023-02-01T13:29:55;5.00;99.90
34873;DHT22;21084;51.098;14.506;2023-02-01T13:32:39;4.70;99.90
34873;DHT22;21084;51.098;14.506;2023-02-01T13:35:51;4.40;99.90
34873;DHT22;21084;51.098;14.506;2023-02-01T13:39:02;4.30;99.90
34873;DHT22;21084;51.098;14.506;2023-02-01T13:41:41;4.20;99.90
34873;DHT22;21084;51.098;14.506;2023-02-01T13:44:12;4.10;99.90
34873;DHT22;21084;51.098;14.506;2023-02-01T13:46:45;4.20;99.90
34873;DHT22;21084;51.098;14.506;2023-02-01T13:49:19;4.20;99.90
34873;DHT22;21084;51.098;14.506;2023-02-01T13:51:52;4.20;99.90
34873;DHT22;21084;51.098;14.506;2023-02-01T13:54:33;4.30;99.90
34873;DHT22;21084;51.098;14.506;2023-02-01T13:57:05;4.30;99.90
34873;DHT22;21084;51.098;14.506;2023-02-01T13:59:49;4.40;99.90
34873;DHT22;21084;51.098;14.506;2023-02-01T14:06:05;4.50;99.90
34873;DHT22;21084;51.098;14.506;2023-02-01T14:08:45;4.60;99.90
34873;DHT22;21084;51.098;14.506;2023-02-01T14:14:47;4.60;99.90
34873;DHT22;21084;51.098;14.506;2023-02-01T14:17:34;4.60;99.90
34873;DHT22;21084;51.098;14.506;2023-02-01T14:23:25;4.60;99.90
34873;DHT22;21084;51.098;14.506;2023-02-01T14:26:05;4.70;99.90
34873;DHT22;21084;51.098;14.506;2023-02-01T14:28:39;4.70;99.90
34873;DHT22;21084;51.098;14.506;2023-02-01T14:31:29;4.70;99.90
34873;DHT22;21084;51.098;14.506;2023-02-01T14:34:02;4.70;99.90
34873;DHT22;21084;51.098;14.506;2023-02-01T14:36:41;4.70;99.90
34873;DHT22;21084;51.098;14.506;2023-02-01T14:39:25;4.80;99.90
34873;DHT22;21084;51.098;14.506;2023-02-01T14:41:58;4.80;99.90
34873;DHT22;21084;51.098;14.506;2023-02-01T14:44:34;4.90;99.90
34873;DHT22;21084;51.098;14.506;2023-02-01T14:47:33;4.90;99.90
34873;DHT22;21084;51.098;14.506;2023-02-01T14:50:31;5.00;99.90
34873;DHT22;21084;51.098;14.506;2023-02-01T14:53:20;5.00;99.90
34873;DHT22;21084;51.098;14.506;2023-02-01T14:55:54;4.80;99.90
34873;DHT22;21084;51.098;14.506;2023-02-01T14:58:34;4.70;99.90
34873;DHT22;21084;51.098;14.506;2023-02-01T15:01:05;4.60;99.90
34873;DHT22;21084;51.098;14.506;2023-02-01T15:03:42;4.50;99.90
34873;DHT22;21084;51.098;14.506;2023-02-01T15:06:23;4.40;99.90
34873;DHT22;21084;51.098;14.506;2023-02-01T15:08:55;4.40;99.90
34873;DHT22;21084;51.098;14.506;2023-02-01T15:11:24;4.40;99.90
34873;DHT22;21084;51.098;14.506;2023-02-01T15:13:54;4.40;99.90
34873;DHT22;21084;51.098;14.506;2023-02-01T15:16:25;4.40;99.90
34873;DHT22;21084;51.098;14.506;2023-02-01T15:19:13;4.40;99.90
34873;DHT22;21084;51.098;14.506;2023-02-01T15:21:44;4.40;99.90
34873;DHT22;21084;51.098;14.506;2023-02-01T15:24:14;4.50;99.90
34873;DHT22;21084;51.098;14.506;2023-02-01T15:26:46;4.60;99.90
34873;DHT22;21084;51.098;14.506;2023-02-01T15:29:16;4.60;99.90
34873;DHT22;21084;51.098;14.506;2023-02-01T15:31:47;4.60;99.90
34873;DHT22;21084;51.098;14.506;2023-02-01T15:34:18;4.70;99.90
34873;DHT22;21084;51.098;14.506;2023-02-01T15:36:47;4.70;99.90
34873;DHT22;21084;51.098;14.506;2023-02-01T15:39:29;4.60;99.90
34873;DHT22;21084;51.098;14.506;2023-02-01T15:42:01;4.50;99.90
34873;DHT22;21084;51.098;14.506;2023-02-01T15:44:39;4.40;99.90
34873;DHT22;21084;51.098;14.506;2023-02-01T15:47:14;4.40;99.90
34873;DHT22;21084;51.098;14.506;2023-02-01T15:49:49;4.40;99.90
34873;DHT22;21084;51.098;14.506;2023-02-01T15:52:23;4.40;99.90
34873;DHT22;21084;51.098;14.506;2023-02-01T15:54:55;4.40;99.90
34873;DHT22;21084;51.098;14.506;2023-02-01T15:57:27;4.30;99.90
34873;DHT22;21084;51.098;14.506;2023-02-01T16:00:00;4.10;99.90
34873;DHT22;21084;51.098;14.506;2023-02-01T16:02:35;4.00;99.90
34873;DHT22;21084;51.098;14.506;2023-02-01T16:05:31;3.80;99.90
34873;DHT22;21084;51.098;14.506;2023-02-01T16:08:03;3.60;99.90
34873;DHT22;21084;51.098;14.506;2023-02-01T16:10:39;3.60;99.90
34873;DHT22;21084;51.098;14.506;2023-02-01T16:13:08;3.50;99.90
34873;DHT22;21084;51.098;14.506;2023-02-01T16:15:37;3.50;99.90
34873;DHT22;21084;51.098;14.506;2023-02-01T16:18:06;3.50;99.90
34873;DHT22;21084;51.098;14.506;2023-02-01T16:20:37;3.50;99.90
34873;DHT22;21084;51.098;14.506;2023-02-01T16:23:07;3.40;99.90
34873;DHT22;21084;51.098;14.506;2023-02-01T16:25:37;3.40;99.90
34873;DHT22;21084;51.098;14.506;2023-02-01T16:28:06;3.40;99.90
34873;DHT22;21084;51.098;14.506;2023-02-01T16:30:35;3.50;99.90
34873;DHT22;21084;51.098;14.506;2023-02-01T16:33:05;3.50;99.90
34873;DHT22;21084;51.098;14.506;2023-02-01T16:35:39;3.50;99.90
34873;DHT22;21084;51.098;14.506;2023-02-01T16:38:11;3.50;99.90
34873;DHT22;21084;51.098;14.506;2023-02-01T16:40:41;3.50;99.90